Time;durP1;ratioP1;P1;durP2;ratioP2;P2;SDS_P1;SDS_P2;PMS_P1;PMS_P2;Temp;Humidity;BMP_temperature;BMP_pressure;BME280_temperature;BME280_humidity;BME280_pressure;Samples;Min_cycle;Max_cycle;Signal;HPM_P1;HPM_P2
2022/11/22 00:01:30;;;;;;;15.63;8.43;;;11.30;92.80;;;;;;5065505;28;20262;-78
2022/11/22 00:03:58;;;;;;;15.87;8.30;;;11.30;92.80;;;;;;5068553;28;20584;-80
2022/11/22 00:06:26;;;;;;;16.23;9.03;;;11.30;92.80;;;;;;5065217;28;20252;-79
2022/11/22 00:08:54;;;;;;;20.53;8.83;;;11.30;92.90;;;;;;5068808;28;20234;-79
2022/11/22 00:11:23;;;;;;;16.63;9.03;;;11.30;92.90;;;;;;5065195;28;20233;-78
2022/11/22 00:13:51;;;;;;;19.00;9.70;;;11.40;92.90;;;;;;5065950;28;20255;-78
2022/11/22 00:16:19;;;;;;;21.13;10.77;;;11.40;92.90;;;;;;5062206;28;20983;-78
2022/11/22 00:18:49;;;;;;;19.90;9.63;;;11.40;93.10;;;;;;5063421;28;20668;-78
2022/11/22 00:21:17;;;;;;;17.37;9.67;;;11.50;93.00;;;;;;5063636;28;20269;-79
2022/11/22 00:23:45;;;;;;;17.27;8.93;;;11.50;92.90;;;;;;5066911;28;20198;-79
2022/11/22 00:26:14;;;;;;;21.33;9.70;;;11.50;92.80;;;;;;5066935;28;20671;-78
2022/11/22 00:28:42;;;;;;;22.35;11.88;;;11.50;92.80;;;;;;5065848;28;20439;-77
2022/11/22 00:31:10;;;;;;;22.23;11.40;;;11.50;92.80;;;;;;5062667;28;20195;-77
2022/11/22 00:33:39;;;;;;;21.77;11.20;;;11.60;92.80;;;;;;5066682;28;20211;-78
2022/11/22 00:36:08;;;;;;;18.80;9.77;;;11.50;92.50;;;;;;5064801;28;20286;-79
2022/11/22 00:38:37;;;;;;;16.53;9.63;;;11.50;92.60;;;;;;5063829;28;20678;-79
2022/11/22 00:41:05;;;;;;;19.87;10.10;;;11.50;92.60;;;;;;5063408;28;20720;-78
2022/11/22 00:43:33;;;;;;;16.97;9.17;;;11.50;92.60;;;;;;5066846;28;20198;-78
2022/11/22 00:46:02;;;;;;;20.13;9.43;;;11.50;93.00;;;;;;5061587;28;20226;-77
2022/11/22 00:48:30;;;;;;;15.43;9.03;;;11.60;92.70;;;;;;5066287;28;20593;-78
2022/11/22 00:50:58;;;;;;;16.33;9.10;;;11.60;92.80;;;;;;5067729;28;20244;-79
2022/11/22 00:53:28;;;;;;;21.77;9.43;;;11.60;92.80;;;;;;5064697;28;20210;-77
2022/11/22 00:55:56;;;;;;;16.17;8.97;;;11.60;92.90;;;;;;5063110;28;20202;-78
2022/11/22 00:58:24;;;;;;;16.10;9.30;;;11.60;92.90;;;;;;5066739;28;20230;-79
2022/11/22 01:00:53;;;;;;;17.60;8.90;;;11.60;92.90;;;;;;5065730;28;20674;-79
2022/11/22 01:03:24;;;;;;;15.23;8.67;;;11.60;93.00;;;;;;5066810;28;21271;-79
2022/11/22 01:05:52;;;;;;;20.27;10.10;;;11.60;93.10;;;;;;5062246;28;20275;-78
2022/11/22 01:08:20;;;;;;;17.23;9.30;;;11.60;93.10;;;;;;5068161;28;20202;-78
2022/11/22 01:10:56;;;;;;;17.93;9.23;;;11.60;93.10;;;;;;5065061;28;20577;-79
2022/11/22 01:13:24;;;;;;;16.50;9.00;;;11.60;93.20;;;;;;5066664;28;20249;-78
2022/11/22 01:15:53;;;;;;;14.90;8.63;;;11.60;93.20;;;;;;5059198;28;20206;-79
2022/11/22 01:18:21;;;;;;;15.63;7.93;;;11.60;93.20;;;;;;5063601;28;20194;-78
2022/11/22 01:20:50;;;;;;;15.57;8.33;;;11.60;93.40;;;;;;5066412;28;20226;-78
2022/11/22 01:23:18;;;;;;;14.70;8.10;;;11.60;93.30;;;;;;5066170;28;20199;-79
2022/11/22 01:25:46;;;;;;;16.33;8.37;;;11.60;93.30;;;;;;5065988;28;20610;-79
2022/11/22 01:28:16;;;;;;;17.13;8.00;;;11.60;93.30;;;;;;5066016;28;20701;-79
2022/11/22 01:30:45;;;;;;;14.47;8.00;;;11.60;93.30;;;;;;5068745;28;20199;-79
2022/11/22 01:33:13;;;;;;;14.10;8.77;;;11.60;93.30;;;;;;5062961;28;20214;-78
2022/11/22 01:35:41;;;;;;;14.97;8.30;;;11.60;93.30;;;;;;5064230;28;20295;-78
2022/11/22 01:38:10;;;;;;;18.63;9.43;;;11.60;93.30;;;;;;5068186;28;20194;-78
2022/11/22 01:40:39;;;;;;;18.63;9.03;;;11.70;93.40;;;;;;5064804;28;20222;-78
2022/11/22 01:43:17;;;;;;;18.13;9.80;;;11.70;93.40;;;;;;5062010;28;20255;-78
2022/11/22 01:45:54;;;;;;;18.83;8.97;;;11.70;93.50;;;;;;5064691;28;20296;-78
2022/11/22 01:48:38;;;;;;;17.93;9.00;;;11.70;93.40;;;;;;5065632;28;20194;-78
2022/11/22 01:51:20;;;;;;;18.53;9.27;;;11.70;93.40;;;;;;5063787;28;20186;-78
2022/11/22 01:53:49;;;;;;;14.77;8.67;;;11.70;93.40;;;;;;5067636;28;20950;-78
2022/11/22 01:56:20;;;;;;;16.13;8.53;;;11.70;93.30;;;;;;5060821;28;20198;-78
2022/11/22 01:58:54;;;;;;;16.57;8.37;;;11.70;93.40;;;;;;5063193;28;20206;-77
2022/11/22 02:01:22;;;;;;;18.33;8.60;;;11.70;93.40;;;;;;5065049;28;20214;-78
2022/11/22 02:03:53;;;;;;;17.67;9.07;;;11.60;93.30;;;;;;5066808;28;20213;-78
2022/11/22 02:06:23;;;;;;;14.73;8.33;;;11.60;93.30;;;;;;5067621;28;20279;-78
2022/11/22 02:08:56;;;;;;;17.00;9.10;;;11.60;93.40;;;;;;5064158;28;20195;-78
2022/11/22 02:11:26;;;;;;;15.87;9.10;;;11.60;93.40;;;;;;5067756;28;20191;-78
2022/11/22 02:14:03;;;;;;;14.90;7.47;;;11.60;93.30;;;;;;5061424;28;20206;-78
2022/11/22 02:16:34;;;;;;;20.23;8.90;;;11.50;93.30;;;;;;5059959;28;20286;-78
2022/11/22 02:19:03;;;;;;;15.10;9.00;;;11.50;93.40;;;;;;5061317;28;20839;-79
2022/11/22 02:21:31;;;;;;;16.27;8.50;;;11.50;93.40;;;;;;5062540;28;20230;-78
2022/11/22 02:24:07;;;;;;;15.10;8.10;;;11.40;93.50;;;;;;5067236;28;20203;-78
2022/11/22 02:26:37;;;;;;;22.60;8.40;;;11.40;93.60;;;;;;5064534;28;20225;-78
2022/11/22 02:29:07;;;;;;;16.67;9.00;;;11.30;93.60;;;;;;5069331;28;20230;-78
2022/11/22 02:31:39;;;;;;;19.23;7.87;;;11.30;93.60;;;;;;5066046;28;20726;-78
2022/11/22 02:34:08;;;;;;;17.27;9.20;;;11.30;93.60;;;;;;5068653;28;20214;-78
2022/11/22 02:36:42;;;;;;;18.40;9.47;;;11.30;93.70;;;;;;5072187;28;20198;-78
2022/11/22 02:39:13;;;;;;;20.73;9.30;;;11.30;93.70;;;;;;5068158;28;20239;-78
2022/11/22 02:41:43;;;;;;;22.23;10.00;;;11.30;93.70;;;;;;5067987;28;20605;-78
2022/11/22 02:44:13;;;;;;;22.83;9.27;;;11.30;93.70;;;;;;5068320;28;20704;-77
2022/11/22 02:46:48;;;;;;;17.97;8.60;;;11.30;93.70;;;;;;5066516;28;20241;-78
2022/11/22 02:49:18;;;;;;;18.30;9.10;;;11.30;93.70;;;;;;5069620;28;20194;-78
2022/11/22 02:51:47;;;;;;;21.60;8.70;;;11.30;93.80;;;;;;5070759;28;20252;-78
2022/11/22 02:54:16;;;;;;;15.63;8.47;;;11.30;93.80;;;;;;5066701;28;20210;-78
2022/11/22 02:56:46;;;;;;;17.50;8.93;;;11.40;93.70;;;;;;5065448;28;20542;-78
2022/11/22 02:59:14;;;;;;;16.40;8.43;;;11.30;93.70;;;;;;5062666;28;20192;-78
2022/11/22 03:01:44;;;;;;;17.57;8.97;;;11.30;93.60;;;;;;5066844;28;20194;-78
2022/11/22 03:04:23;;;;;;;16.87;8.67;;;11.30;93.60;;;;;;5067678;28;20194;-78
2022/11/22 03:06:54;;;;;;;17.13;9.30;;;11.30;93.60;;;;;;5065360;28;20209;-78
2022/11/22 03:09:23;;;;;;;16.80;7.53;;;11.30;93.70;;;;;;5069051;28;20240;-78
2022/11/22 03:11:54;;;;;;;17.33;8.10;;;11.30;93.60;;;;;;5064556;28;20233;-78
2022/11/22 03:14:22;;;;;;;18.13;8.40;;;11.30;93.60;;;;;;5063050;28;20701;-78
2022/11/22 03:16:51;;;;;;;17.10;8.57;;;11.30;93.60;;;;;;5070487;28;20220;-78
2022/11/22 03:19:19;;;;;;;16.33;7.93;;;11.20;93.60;;;;;;5067933;28;20228;-78
2022/11/22 03:21:48;;;;;;;21.20;7.80;;;11.30;93.70;;;;;;5069145;28;20252;-78
2022/11/22 03:24:18;;;;;;;17.53;8.50;;;11.30;93.70;;;;;;5065984;28;20233;-78
2022/11/22 03:26:48;;;;;;;18.03;9.07;;;11.30;93.70;;;;;;5065743;28;20227;-79
2022/11/22 03:29:18;;;;;;;19.60;9.10;;;11.30;93.70;;;;;;5070869;28;20250;-79
2022/11/22 03:31:46;;;;;;;16.20;8.63;;;11.30;93.70;;;;;;5068377;28;20202;-79
2022/11/22 03:34:15;;;;;;;22.83;9.03;;;11.30;93.70;;;;;;5068911;28;20295;-79
2022/11/22 03:36:44;;;;;;;16.57;8.77;;;11.20;93.70;;;;;;5067515;28;20544;-79
2022/11/22 03:39:12;;;;;;;21.67;9.53;;;11.20;93.70;;;;;;5070009;28;20199;-82
2022/11/22 03:41:40;;;;;;;16.17;8.33;;;11.20;93.70;;;;;;5064836;28;20199;-78
2022/11/22 03:44:09;;;;;;;14.23;7.87;;;11.20;93.70;;;;;;5063691;28;20256;-79
2022/11/22 03:46:38;;;;;;;18.57;9.70;;;11.20;93.70;;;;;;5068054;28;20195;-78
2022/11/22 03:49:07;;;;;;;20.77;9.53;;;11.20;93.80;;;;;;5066279;28;20222;-78
2022/11/22 03:51:35;;;;;;;18.07;8.70;;;11.20;93.80;;;;;;5063588;28;20222;-79
2022/11/22 03:54:03;;;;;;;16.37;9.07;;;11.20;93.70;;;;;;5067867;28;20958;-78
2022/11/22 03:56:32;;;;;;;19.83;8.83;;;11.20;93.80;;;;;;5066593;28;20569;-78
2022/11/22 03:59:00;;;;;;;15.93;8.47;;;11.20;93.80;;;;;;5064861;28;20195;-78
2022/11/22 04:01:29;;;;;;;17.27;8.97;;;11.20;93.80;;;;;;5065760;28;20248;-79
2022/11/22 04:03:58;;;;;;;15.30;8.00;;;11.20;93.90;;;;;;5065954;28;20199;-80
2022/11/22 04:06:27;;;;;;;17.57;9.20;;;11.20;93.90;;;;;;5069908;28;20202;-79
2022/11/22 04:08:55;;;;;;;21.67;8.57;;;11.20;93.90;;;;;;5067814;28;20226;-78
2022/11/22 04:11:23;;;;;;;20.00;8.73;;;11.20;93.90;;;;;;5061980;28;20213;-78
2022/11/22 04:16:37;;;;;;;19.90;8.70;;;11.20;93.80;;;;;;5065206;28;20194;-78
2022/11/22 04:19:07;;;;;;;18.00;9.27;;;11.20;93.90;;;;;;5070758;28;20207;-79
2022/11/22 04:21:34;;;;;;;18.83;9.23;;;11.20;93.80;;;;;;5062792;28;20268;-78
2022/11/22 04:26:47;;;;;;;17.20;8.80;;;11.20;93.80;;;;;;5031703;28;20223;-78
2022/11/22 04:29:16;;;;;;;15.50;8.20;;;11.20;93.80;;;;;;5064096;28;20260;-78
2022/11/22 04:34:31;;;;;;;19.87;8.67;;;11.30;93.90;;;;;;5062671;28;20199;-79
2022/11/22 04:37:00;;;;;;;19.33;9.50;;;11.30;93.80;;;;;;5060000;28;20229;-79
2022/11/22 04:39:28;;;;;;;19.03;9.20;;;11.30;93.80;;;;;;5063605;28;20186;-78
2022/11/22 04:44:56;;;;;;;20.17;8.63;;;11.30;93.80;;;;;;5062035;28;20684;-79
2022/11/22 04:53:04;;;;;;;20.50;9.70;;;11.40;93.80;;;;;;5068852;28;20252;-78
2022/11/22 04:55:32;;;;;;;17.57;8.67;;;11.40;93.80;;;;;;5067007;28;21553;-78
2022/11/22 04:58:01;;;;;;;16.00;9.27;;;11.50;93.80;;;;;;5067135;28;20202;-78
2022/11/22 05:00:30;;;;;;;17.23;8.70;;;11.50;93.80;;;;;;5066630;28;20221;-78
2022/11/22 05:02:58;;;;;;;16.73;9.50;;;11.60;93.80;;;;;;5068337;28;20210;-79
2022/11/22 05:05:28;;;;;;;16.60;9.20;;;11.60;93.70;;;;;;5061589;28;20239;-78
2022/11/22 05:07:58;;;;;;;17.20;9.10;;;11.60;93.60;;;;;;5060950;28;20244;-78
2022/11/22 05:10:26;;;;;;;23.80;10.03;;;11.60;93.60;;;;;;5060778;28;20238;-78
2022/11/22 05:12:55;;;;;;;20.63;10.23;;;11.60;93.50;;;;;;5064849;28;20479;-78
2022/11/22 05:15:23;;;;;;;19.97;9.77;;;11.60;93.50;;;;;;5063577;28;20612;-78
2022/11/22 05:17:51;;;;;;;16.10;8.47;;;11.60;93.50;;;;;;5067225;28;20226;-78
2022/11/22 05:20:19;;;;;;;20.43;9.30;;;11.60;93.50;;;;;;5062104;28;20206;-78
2022/11/22 05:25:37;;;;;;;19.57;9.67;;;11.60;93.50;;;;;;5059971;28;20255;-78
2022/11/22 05:28:06;;;;;;;20.43;10.07;;;11.60;93.50;;;;;;5064827;28;20616;-79
2022/11/22 05:30:34;;;;;;;18.33;9.50;;;11.60;93.50;;;;;;5066177;28;20211;-78
2022/11/22 05:33:02;;;;;;;18.30;9.77;;;11.60;93.50;;;;;;5069810;28;20251;-79
2022/11/22 05:35:30;;;;;;;21.23;10.50;;;11.60;93.50;;;;;;5070534;28;20254;-79
2022/11/22 05:38:00;;;;;;;24.03;11.37;;;11.60;93.50;;;;;;5066614;28;20230;-79
2022/11/22 05:40:28;;;;;;;20.00;10.43;;;11.60;93.50;;;;;;5065976;28;20237;-79
2022/11/22 05:42:58;;;;;;;22.98;12.15;;;11.60;93.50;;;;;;5066618;28;20967;-79
2022/11/22 05:45:26;;;;;;;19.97;10.47;;;11.50;93.50;;;;;;5063392;28;20544;-78
2022/11/22 05:47:56;;;;;;;22.17;10.87;;;11.60;93.60;;;;;;5061938;28;20586;-79
2022/11/22 05:50:24;;;;;;;21.47;10.63;;;11.60;93.50;;;;;;5064087;28;20190;-78
2022/11/22 05:52:52;;;;;;;19.93;10.10;;;11.50;93.40;;;;;;5066071;28;20202;-78
2022/11/22 05:55:22;;;;;;;21.17;11.73;;;11.60;93.50;;;;;;5065883;28;20612;-78
2022/11/22 05:57:50;;;;;;;22.43;11.23;;;11.60;93.40;;;;;;5065526;28;20226;-78
2022/11/22 06:00:19;;;;;;;20.47;10.83;;;11.60;93.40;;;;;;5061880;28;20655;-78
2022/11/22 06:02:47;;;;;;;22.63;11.30;;;11.60;93.40;;;;;;5063801;28;20204;-78
2022/11/22 06:05:16;;;;;;;23.80;10.77;;;11.60;93.40;;;;;;5066529;28;20194;-79
2022/11/22 06:07:45;;;;;;;25.03;10.53;;;11.70;93.40;;;;;;5066480;28;20230;-77
2022/11/22 06:10:13;;;;;;;22.87;11.03;;;11.70;93.40;;;;;;5063443;28;20213;-78
2022/11/22 06:12:43;;;;;;;21.27;10.30;;;11.70;93.40;;;;;;5066943;28;20229;-78
2022/11/22 06:15:12;;;;;;;17.13;9.53;;;11.70;93.30;;;;;;5063022;28;20717;-77
2022/11/22 06:17:40;;;;;;;19.67;10.17;;;11.80;93.30;;;;;;5060760;28;20663;-78
2022/11/22 06:20:10;;;;;;;19.37;9.93;;;11.80;93.30;;;;;;5061338;28;20233;-78
2022/11/22 06:22:38;;;;;;;22.50;11.50;;;11.80;93.20;;;;;;5060576;28;20248;-78
2022/11/22 06:25:07;;;;;;;21.80;11.03;;;11.80;93.20;;;;;;5062271;28;21487;-78
2022/11/22 06:27:36;;;;;;;20.53;10.67;;;11.90;93.30;;;;;;5062334;28;20452;-78
2022/11/22 06:30:07;;;;;;;20.70;11.63;;;11.90;93.30;;;;;;5067762;28;20567;-77
2022/11/22 06:32:35;;;;;;;19.50;10.20;;;11.90;93.00;;;;;;5067983;28;20566;-78
2022/11/22 06:35:04;;;;;;;19.90;10.10;;;11.80;93.00;;;;;;5066455;28;20260;-78
2022/11/22 06:37:33;;;;;;;21.95;11.10;;;11.90;93.00;;;;;;5065449;28;20435;-78
2022/11/22 06:40:01;;;;;;;22.57;11.00;;;11.90;93.10;;;;;;5062085;28;20198;-77
2022/11/22 06:42:29;;;;;;;18.63;10.03;;;11.90;93.00;;;;;;5056294;28;20678;-77
2022/11/22 06:44:57;;;;;;;20.47;10.27;;;11.80;93.00;;;;;;5063916;28;20199;-78
2022/11/22 06:47:27;;;;;;;17.67;9.00;;;11.80;92.90;;;;;;5064932;28;20279;-79
2022/11/22 06:49:55;;;;;;;21.45;11.07;;;11.80;92.80;;;;;;5066039;28;20428;-78
2022/11/22 06:52:25;;;;;;;19.77;11.03;;;11.80;92.80;;;;;;5061497;28;20206;-79
2022/11/22 06:54:53;;;;;;;21.97;10.53;;;11.80;92.80;;;;;;5065321;28;20279;-78
2022/11/22 06:57:22;;;;;;;19.87;8.90;;;11.70;92.80;;;;;;5066339;28;20230;-76
2022/11/22 06:59:50;;;;;;;17.80;9.70;;;11.70;92.70;;;;;;5065684;28;20632;-80
2022/11/22 07:02:18;;;;;;;22.43;10.13;;;11.70;92.60;;;;;;5065043;28;20667;-81
2022/11/22 07:04:48;;;;;;;17.83;9.00;;;11.70;92.60;;;;;;5058899;28;20203;-78
2022/11/22 07:07:37;;;;;;;21.50;10.75;;;11.60;92.50;;;;;;5058329;28;20801;-78
2022/11/22 07:10:06;;;;;;;17.97;9.00;;;11.60;92.70;;;;;;5061236;28;20586;-78
2022/11/22 07:12:34;;;;;;;20.37;9.70;;;11.60;92.60;;;;;;5066805;28;20727;-78
2022/11/22 07:15:02;;;;;;;19.63;9.77;;;11.70;92.60;;;;;;5068481;28;20655;-78
2022/11/22 07:17:31;;;;;;;19.87;8.90;;;11.60;92.50;;;;;;5068416;28;20232;-77
2022/11/22 07:20:00;;;;;;;22.80;10.97;;;11.70;92.70;;;;;;5065139;28;20583;-79
2022/11/22 07:22:29;;;;;;;19.47;9.90;;;11.70;92.60;;;;;;5063432;28;20272;-79
2022/11/22 07:24:57;;;;;;;19.07;8.90;;;11.70;92.30;;;;;;5068347;28;20256;-78
2022/11/22 07:27:25;;;;;;;20.77;10.27;;;11.70;92.40;;;;;;5072411;28;20233;-78
2022/11/22 07:29:53;;;;;;;15.97;8.93;;;11.70;92.40;;;;;;5068523;28;20199;-79
2022/11/22 07:32:22;;;;;;;16.53;8.80;;;11.60;92.20;;;;;;5070794;28;20652;-79
2022/11/22 07:34:50;;;;;;;18.47;9.40;;;11.60;92.20;;;;;;5067164;28;20199;-77
2022/11/22 07:37:20;;;;;;;18.83;8.97;;;11.60;92.20;;;;;;5069823;28;20246;-79
2022/11/22 07:39:48;;;;;;;18.57;9.63;;;11.60;92.10;;;;;;5065714;28;20237;-78
2022/11/22 07:42:16;;;;;;;21.00;10.83;;;11.60;92.10;;;;;;5064708;28;21493;-77
2022/11/22 07:44:52;;;;;;;18.20;8.93;;;11.60;92.10;;;;;;5068133;28;20201;-76
2022/11/22 07:47:21;;;;;;;16.87;9.03;;;11.50;92.00;;;;;;5069972;28;20198;-77
2022/11/22 07:49:50;;;;;;;20.03;9.23;;;11.60;92.10;;;;;;5061948;28;20642;-79
2022/11/22 07:52:20;;;;;;;17.47;9.20;;;11.60;92.10;;;;;;5067074;28;20657;-79
2022/11/22 07:54:48;;;;;;;20.00;9.03;;;11.60;92.00;;;;;;5064768;28;20198;-81
2022/11/22 07:57:16;;;;;;;19.33;8.33;;;11.60;91.90;;;;;;5074041;28;20258;-78
2022/11/22 07:59:45;;;;;;;17.07;7.93;;;11.50;91.80;;;;;;5074505;28;20283;-81
2022/11/22 08:02:13;;;;;;;17.97;8.83;;;11.50;91.70;;;;;;5071558;28;20651;-78
2022/11/22 08:04:42;;;;;;;14.57;8.07;;;11.50;91.70;;;;;;5065025;28;20199;-80
2022/11/22 08:07:11;;;;;;;18.87;8.23;;;11.50;91.80;;;;;;5068144;28;20562;-80
2022/11/22 08:09:41;;;;;;;15.70;8.30;;;11.50;91.80;;;;;;5072811;28;20256;-80
2022/11/22 08:12:09;;;;;;;16.33;8.23;;;11.40;91.70;;;;;;5070246;28;20205;-79
2022/11/22 08:14:38;;;;;;;14.73;7.47;;;11.40;91.80;;;;;;5068652;28;20244;-78
2022/11/22 08:17:06;;;;;;;19.00;9.10;;;11.50;91.90;;;;;;5067892;28;20621;-78
2022/11/22 08:19:34;;;;;;;14.53;8.47;;;11.50;91.90;;;;;;5066373;28;20198;-78
2022/11/22 08:22:06;;;;;;;19.93;9.43;;;11.50;92.00;;;;;;5066363;28;20642;-79
2022/11/22 08:24:34;;;;;;;15.67;7.70;;;11.50;92.00;;;;;;5066446;28;20190;-79
2022/11/22 08:27:04;;;;;;;15.83;8.10;;;11.50;92.00;;;;;;5067048;28;20199;-78
2022/11/22 08:29:32;;;;;;;14.47;8.13;;;11.60;91.90;;;;;;5067615;28;20191;-79
2022/11/22 08:32:00;;;;;;;18.37;8.70;;;11.60;91.90;;;;;;5069647;28;20213;-80
2022/11/22 08:34:29;;;;;;;17.90;8.97;;;11.70;92.00;;;;;;5066362;28;20279;-78
2022/11/22 08:36:57;;;;;;;16.97;9.00;;;11.70;91.90;;;;;;5065451;28;20250;-79
2022/11/22 08:39:25;;;;;;;17.37;9.13;;;11.70;91.70;;;;;;5069081;28;20191;-78
2022/11/22 08:41:54;;;;;;;17.90;9.00;;;11.70;91.70;;;;;;5070916;28;20203;-78
2022/11/22 08:44:23;;;;;;;17.47;8.77;;;11.70;91.70;;;;;;5068151;28;20191;-79
2022/11/22 08:46:52;;;;;;;14.93;8.33;;;11.80;91.60;;;;;;5064361;28;20251;-78
2022/11/22 08:49:20;;;;;;;16.63;9.23;;;11.80;91.40;;;;;;5062940;28;20199;-78
2022/11/22 08:51:48;;;;;;;16.17;8.27;;;11.80;91.50;;;;;;5058468;28;20199;-79
2022/11/22 08:54:17;;;;;;;19.90;8.87;;;11.80;91.10;;;;;;5064458;28;20198;-78
2022/11/22 08:56:45;;;;;;;19.43;9.03;;;11.80;91.20;;;;;;5068348;28;20276;-79
2022/11/22 08:59:13;;;;;;;18.23;9.70;;;11.80;91.30;;;;;;5067563;28;20225;-79
2022/11/22 09:01:43;;;;;;;18.57;9.37;;;11.90;91.30;;;;;;5068541;28;20564;-79
2022/11/22 09:04:13;;;;;;;14.90;8.03;;;11.90;91.20;;;;;;5062675;28;20214;-80
2022/11/22 09:06:41;;;;;;;17.10;9.57;;;11.90;91.10;;;;;;5066215;28;20194;-80
2022/11/22 09:09:29;;;;;;;17.40;9.07;;;11.90;91.00;;;;;;5064227;28;20194;-80
2022/11/22 09:12:05;;;;;;;18.43;9.50;;;11.80;90.80;;;;;;5066019;28;20204;-79
2022/11/22 09:14:34;;;;;;;16.33;8.77;;;11.80;90.90;;;;;;5066628;28;20194;-78
2022/11/22 09:17:04;;;;;;;18.23;9.40;;;11.90;91.10;;;;;;5066140;28;20218;-83
2022/11/22 09:19:33;;;;;;;16.17;10.00;;;11.90;90.90;;;;;;5067675;28;20217;-80
2022/11/22 09:22:01;;;;;;;17.37;9.47;;;11.90;90.80;;;;;;5059417;28;20239;-78
2022/11/22 09:24:32;;;;;;;18.13;9.63;;;11.90;90.90;;;;;;5065487;28;20198;-78
2022/11/22 09:27:01;;;;;;;15.97;9.33;;;11.90;90.80;;;;;;5065764;28;20584;-80
2022/11/22 09:29:32;;;;;;;16.57;9.23;;;11.90;90.70;;;;;;5070765;28;20191;-83
2022/11/22 09:32:02;;;;;;;18.63;9.03;;;11.80;90.70;;;;;;5068294;28;20599;-82
2022/11/22 09:34:34;;;;;;;16.97;9.60;;;11.80;90.80;;;;;;5068411;28;20202;-82
2022/11/22 09:37:02;;;;;;;21.10;10.83;;;11.70;90.90;;;;;;5067485;28;20268;-78
2022/11/22 09:39:31;;;;;;;22.77;11.10;;;11.70;91.10;;;;;;5069075;28;20289;-79
2022/11/22 09:42:30;;;;;;;21.23;10.40;;;11.70;91.10;;;;;;5070925;28;20681;-79
2022/11/22 09:45:34;;;;;;;20.37;10.17;;;11.70;91.20;;;;;;5066859;28;20659;-78
2022/11/22 09:48:18;;;;;;;20.20;9.97;;;11.70;91.30;;;;;;5062225;28;20216;-79
2022/11/22 09:50:57;;;;;;;23.47;9.50;;;11.80;91.40;;;;;;5063929;28;20229;-78
2022/11/22 09:53:31;;;;;;;18.97;10.40;;;11.80;91.40;;;;;;5087232;28;20255;-80
2022/11/22 09:56:02;;;;;;;20.77;10.43;;;11.70;91.40;;;;;;5085165;28;20251;-80
2022/11/22 09:58:35;;;;;;;20.63;10.93;;;11.80;91.40;;;;;;5086711;28;20485;-78
2022/11/22 10:01:10;;;;;;;21.83;11.53;;;11.80;91.50;;;;;;5087955;28;20247;-79
2022/11/22 10:03:46;;;;;;;24.37;11.63;;;11.70;91.60;;;;;;5087627;28;20814;-79
2022/11/22 10:06:20;;;;;;;24.63;11.60;;;11.70;91.60;;;;;;5086446;28;20231;-77
2022/11/22 10:08:59;;;;;;;20.87;11.37;;;11.60;91.50;;;;;;5087723;28;20609;-78
2022/11/22 10:11:35;;;;;;;25.00;11.90;;;11.70;91.70;;;;;;5084349;28;20239;-77
2022/11/22 10:14:12;;;;;;;23.97;12.33;;;11.70;91.60;;;;;;5086543;28;20201;-79
2022/11/22 10:16:47;;;;;;;21.30;10.77;;;11.70;91.60;;;;;;5082688;28;20235;-78
2022/11/22 10:19:20;;;;;;;23.57;12.60;;;11.70;91.70;;;;;;5083901;28;20595;-78
2022/11/22 10:21:51;;;;;;;17.93;10.27;;;11.80;91.70;;;;;;5084185;28;20750;-78
2022/11/22 10:24:19;;;;;;;27.00;13.43;;;11.80;91.70;;;;;;5084920;28;20434;-79
2022/11/22 10:26:48;;;;;;;22.23;11.53;;;11.90;91.80;;;;;;5067783;28;20193;-77
2022/11/22 10:29:26;;;;;;;23.47;11.83;;;11.90;91.80;;;;;;5082667;28;20251;-79
2022/11/22 10:32:01;;;;;;;23.17;11.53;;;12.00;91.80;;;;;;5087962;28;20566;-77
2022/11/22 10:34:49;;;;;;;22.27;12.73;;;12.00;91.70;;;;;;5081601;28;20338;-78
2022/11/22 10:37:37;;;;;;;20.67;11.00;;;12.10;91.60;;;;;;5085690;28;20706;-79
2022/11/22 10:40:17;;;;;;;25.60;11.23;;;12.20;91.70;;;;;;5084631;28;20222;-78
2022/11/22 10:43:22;;;;;;;21.97;12.37;;;12.30;91.70;;;;;;5089169;28;20197;-78
2022/11/22 10:46:01;;;;;;;25.00;11.73;;;12.40;91.60;;;;;;5081409;28;20209;-77
2022/11/22 10:48:34;;;;;;;26.10;11.80;;;12.40;91.50;;;;;;5090395;28;20189;-80
2022/11/22 10:51:10;;;;;;;23.47;12.43;;;12.50;91.40;;;;;;5086458;28;20651;-80
2022/11/22 10:53:55;;;;;;;22.00;11.53;;;12.50;91.10;;;;;;5085358;28;20284;-79
2022/11/22 10:56:37;;;;;;;23.17;11.27;;;12.60;91.10;;;;;;5082659;28;20194;-79
2022/11/22 10:59:38;;;;;;;22.43;11.43;;;12.70;91.10;;;;;;5086489;28;20209;-81
2022/11/22 11:02:23;;;;;;;24.20;12.87;;;12.70;91.00;;;;;;5086849;28;20232;-81
2022/11/22 11:04:54;;;;;;;25.17;12.50;;;12.70;90.50;;;;;;5089143;28;20202;-80
2022/11/22 11:07:25;;;;;;;24.40;12.40;;;12.70;90.20;;;;;;5095346;28;20194;-79
2022/11/22 11:09:59;;;;;;;21.47;12.00;;;12.70;90.30;;;;;;5086055;28;20204;-79
2022/11/22 11:12:42;;;;;;;28.47;11.90;;;12.70;90.20;;;;;;5094751;28;20208;-79
2022/11/22 11:15:19;;;;;;;27.63;13.73;;;12.70;90.20;;;;;;5087858;28;20661;-79
2022/11/22 11:18:08;;;;;;;27.90;11.17;;;12.70;90.20;;;;;;5094194;28;20270;-79
2022/11/22 11:20:39;;;;;;;25.53;12.57;;;12.70;90.20;;;;;;5093630;28;20268;-79
2022/11/22 11:23:09;;;;;;;24.20;12.97;;;12.70;90.10;;;;;;5089699;28;20198;-79
2022/11/22 11:25:46;;;;;;;22.40;12.90;;;12.70;90.10;;;;;;5087076;28;20205;-80
2022/11/22 11:28:19;;;;;;;24.83;13.33;;;12.70;90.20;;;;;;5086361;28;21204;-79
2022/11/22 11:30:54;;;;;;;27.93;13.53;;;12.70;90.20;;;;;;5080093;28;20198;-80
2022/11/22 11:33:27;;;;;;;23.57;12.00;;;12.70;90.30;;;;;;5090781;28;20231;-80
2022/11/22 11:36:02;;;;;;;27.05;14.38;;;12.80;90.10;;;;;;5089859;28;20441;-80
2022/11/22 11:38:33;;;;;;;29.17;13.33;;;12.80;90.20;;;;;;5086368;28;20263;-79
2022/11/22 11:41:24;;;;;;;26.20;13.47;;;12.80;90.30;;;;;;5099082;28;20670;-81
2022/11/22 11:43:55;;;;;;;23.53;11.97;;;12.70;90.00;;;;;;5083423;28;20272;-80
2022/11/22 11:46:47;;;;;;;27.33;12.40;;;12.80;90.20;;;;;;5087217;28;20282;-80
2022/11/22 11:49:18;;;;;;;25.57;13.27;;;12.80;90.20;;;;;;5091267;28;20197;-79
2022/11/22 11:51:48;;;;;;;27.93;13.23;;;12.90;90.20;;;;;;5086110;28;20226;-79
2022/11/22 11:54:19;;;;;;;25.90;12.77;;;13.00;90.20;;;;;;5090248;28;20189;-79
2022/11/22 11:56:51;;;;;;;25.57;12.67;;;13.10;90.20;;;;;;5082229;28;20315;-79
2022/11/22 11:59:21;;;;;;;21.30;11.93;;;13.20;90.10;;;;;;5088893;28;20209;-79
2022/11/22 12:02:04;;;;;;;29.63;14.80;;;13.20;90.10;;;;;;5089338;28;20237;-78
2022/11/22 12:04:37;;;;;;;26.03;14.10;;;13.30;89.40;;;;;;5087636;28;20699;-80
2022/11/22 12:07:17;;;;;;;28.63;14.10;;;13.30;88.90;;;;;;5084322;28;20205;-78
2022/11/22 12:09:48;;;;;;;32.07;15.43;;;13.40;88.80;;;;;;5084099;28;20182;-81
2022/11/22 12:12:33;;;;;;;28.50;14.57;;;13.40;89.00;;;;;;5084173;28;20251;-80
2022/11/22 12:15:10;;;;;;;27.10;13.13;;;13.40;89.00;;;;;;5091754;28;20202;-80
2022/11/22 12:17:50;;;;;;;27.57;14.50;;;13.50;89.20;;;;;;5086143;28;20213;-80
2022/11/22 12:20:23;;;;;;;27.73;14.83;;;13.50;88.90;;;;;;5084076;28;20658;-82
2022/11/22 12:23:04;;;;;;;29.50;14.73;;;13.60;89.10;;;;;;5079982;28;21025;-80
2022/11/22 12:25:36;;;;;;;31.27;15.07;;;13.60;88.80;;;;;;5088775;28;20711;-79
2022/11/22 12:28:17;;;;;;;29.50;14.00;;;13.60;88.60;;;;;;5079813;28;20185;-80
2022/11/22 12:30:55;;;;;;;29.70;15.23;;;13.60;88.70;;;;;;5075575;28;20798;-80
2022/11/22 12:33:29;;;;;;;28.87;15.00;;;13.60;88.40;;;;;;5081106;28;21883;-80
2022/11/22 12:35:58;;;;;;;37.73;17.43;;;13.70;88.30;;;;;;5082694;28;20607;-80
2022/11/22 12:38:32;;;;;;;37.03;16.10;;;13.60;88.20;;;;;;5082509;28;20217;-79
2022/11/22 12:41:04;;;;;;;32.60;16.23;;;13.60;88.50;;;;;;5083264;28;20202;-79
2022/11/22 12:43:37;;;;;;;28.13;13.27;;;13.60;88.60;;;;;;5085807;28;20201;-80
2022/11/22 12:46:10;;;;;;;31.43;16.50;;;13.60;88.50;;;;;;5082786;28;20189;-81
2022/11/22 12:48:44;;;;;;;30.80;15.27;;;13.70;88.50;;;;;;5086353;28;20642;-80
2022/11/22 12:51:23;;;;;;;27.13;16.00;;;13.70;88.30;;;;;;5087532;28;20640;-78
2022/11/22 12:53:53;;;;;;;26.47;12.93;;;13.70;88.30;;;;;;5083523;28;20254;-79
2022/11/22 12:56:27;;;;;;;27.73;13.97;;;13.70;88.20;;;;;;5090753;28;20677;-80
2022/11/22 12:59:11;;;;;;;27.00;12.40;;;13.70;88.10;;;;;;5085889;28;20304;-80
2022/11/22 13:01:45;;;;;;;21.27;11.30;;;13.60;87.30;;;;;;5088161;28;20189;-79
2022/11/22 13:04:19;;;;;;;18.37;10.37;;;13.70;88.50;;;;;;5084799;28;20326;-80
2022/11/22 13:06:53;;;;;;;21.27;11.43;;;13.90;90.40;;;;;;5087185;28;20194;-79
2022/11/22 13:09:29;;;;;;;20.37;11.07;;;14.00;90.00;;;;;;5089459;28;20190;-80
2022/11/22 13:12:02;;;;;;;24.90;12.33;;;14.10;88.90;;;;;;5086177;28;20610;-78
2022/11/22 13:14:36;;;;;;;20.03;11.10;;;14.00;87.50;;;;;;5090762;28;20190;-78